Time;durP1;ratioP1;P1;durP2;ratioP2;P2;SDS_P1;SDS_P2;PMS_P1;PMS_P2;Temp;Humidity;BMP_temperature;BMP_pressure;BME280_temperature;BME280_humidity;BME280_pressure;Samples;Min_cycle;Max_cycle;Signal;HPM_P1;HPM_P2
2023/05/15 00:00:47;;;;;;;9.37;8.37;;;;;;;;;;5054841;28;20235;-64
2023/05/15 00:03:16;;;;;;;9.30;8.10;;;;;;;;;;5050454;28;20688;-63
2023/05/15 00:05:43;;;;;;;11.57;8.00;;;;;;;;;;5075507;28;20202;-64
2023/05/15 00:08:11;;;;;;;8.87;7.97;;;;;;;;;;5068048;28;20783;-63
2023/05/15 00:10:38;;;;;;;8.53;7.73;;;;;;;;;;5060279;28;20494;-64
2023/05/15 00:13:13;;;;;;;10.90;8.10;;;;;;;;;;5059635;28;20202;-64
2023/05/15 00:15:40;;;;;;;8.73;7.83;;;;;;;;;;5049120;28;20296;-64
2023/05/15 00:18:08;;;;;;;9.27;8.33;;;;;;;;;;5058757;28;20371;-64
2023/05/15 00:20:35;;;;;;;8.87;8.07;;;;;;;;;;5053747;28;20292;-64
2023/05/15 00:23:02;;;;;;;8.60;7.57;;;;;;;;;;5052033;28;20205;-63
2023/05/15 00:25:30;;;;;;;8.77;7.53;;;;;;;;;;5054142;28;20212;-64
2023/05/15 00:27:57;;;;;;;9.00;7.63;;;;;;;;;;5050410;28;20295;-63
2023/05/15 00:30:25;;;;;;;9.00;8.17;;;;;;;;;;5057398;28;20293;-64
2023/05/15 00:32:52;;;;;;;9.53;8.00;;;;;;;;;;5054169;28;20230;-63
2023/05/15 00:35:20;;;;;;;8.67;7.73;;;;;;;;;;5058588;28;20205;-64
2023/05/15 00:37:47;;;;;;;9.20;7.87;;;;;;;;;;5057532;28;20240;-63
2023/05/15 00:40:23;;;;;;;9.90;7.90;;;;;;;;;;5060390;28;20241;-63
2023/05/15 00:42:52;;;;;;;9.87;8.40;;;;;;;;;;5059965;28;20212;-63
2023/05/15 00:45:19;;;;;;;9.40;8.50;;;;;;;;;;5054928;28;20730;-63
2023/05/15 00:47:47;;;;;;;9.30;8.30;;;;;;;;;;5059634;28;20389;-64
2023/05/15 00:50:15;;;;;;;9.10;8.10;;;;;;;;;;5056811;28;20297;-63
2023/05/15 00:52:43;;;;;;;9.17;8.07;;;;;;;;;;5063778;28;20621;-63
2023/05/15 00:55:10;;;;;;;9.93;8.10;;;;;;;;;;5052898;28;20206;-64
2023/05/15 00:57:38;;;;;;;8.20;7.40;;;;;;;;;;5059097;28;20302;-64
2023/05/15 01:00:09;;;;;;;9.20;8.23;;;;;;;;;;5058257;28;20287;-63
2023/05/15 01:02:37;;;;;;;9.57;8.53;;;;;;;;;;5053191;28;20259;-62
2023/05/15 01:05:06;;;;;;;8.53;7.63;;;;;;;;;;5059004;28;20586;-65
2023/05/15 01:07:38;;;;;;;7.90;7.20;;;;;;;;;;5048724;28;20669;-64
2023/05/15 01:10:06;;;;;;;10.63;8.63;;;;;;;;;;5058219;28;20202;-64
2023/05/15 01:12:35;;;;;;;10.00;8.20;;;;;;;;;;5054916;28;20259;-63
2023/05/15 01:15:03;;;;;;;9.60;8.40;;;;;;;;;;5067259;28;20209;-63
2023/05/15 01:17:31;;;;;;;11.17;8.40;;;;;;;;;;5055975;28;20345;-64
2023/05/15 01:19:59;;;;;;;9.73;8.53;;;;;;;;;;5052063;28;20198;-64
2023/05/15 01:22:27;;;;;;;10.50;9.27;;;;;;;;;;5061077;28;20207;-64
2023/05/15 01:24:58;;;;;;;9.80;8.80;;;;;;;;;;5056675;28;20233;-63
2023/05/15 01:27:30;;;;;;;10.10;8.70;;;;;;;;;;5053072;28;20233;-63
2023/05/15 01:30:16;;;;;;;10.67;8.93;;;;;;;;;;5055936;28;20256;-63
2023/05/15 01:32:43;;;;;;;13.13;9.73;;;;;;;;;;5048101;28;20198;-64
2023/05/15 01:35:17;;;;;;;10.23;8.90;;;;;;;;;;5054863;28;20194;-64
2023/05/15 01:37:48;;;;;;;9.90;8.90;;;;;;;;;;5057127;28;20281;-63
2023/05/15 01:40:17;;;;;;;10.63;8.73;;;;;;;;;;5060834;28;20194;-64
2023/05/15 01:42:50;;;;;;;10.13;9.10;;;;;;;;;;5055764;28;20206;-63
2023/05/15 01:45:19;;;;;;;9.70;7.93;;;;;;;;;;5057045;28;20501;-63
2023/05/15 01:47:48;;;;;;;9.93;7.90;;;;;;;;;;5053440;28;20233;-64
2023/05/15 01:50:17;;;;;;;9.83;8.73;;;;;;;;;;5054609;28;20198;-64
2023/05/15 01:52:47;;;;;;;9.77;8.73;;;;;;;;;;5057563;28;20209;-63
2023/05/15 01:55:15;;;;;;;11.63;10.10;;;;;;;;;;5057167;28;20260;-62
2023/05/15 01:57:43;;;;;;;14.47;10.80;;;;;;;;;;5057122;28;20288;-63
2023/05/15 02:00:11;;;;;;;13.03;11.30;;;;;;;;;;5059113;28;20233;-64
2023/05/15 02:02:39;;;;;;;12.13;10.30;;;;;;;;;;5062527;28;20679;-64
2023/05/15 02:05:07;;;;;;;11.57;9.90;;;;;;;;;;5049525;28;20640;-62
2023/05/15 02:07:34;;;;;;;11.93;9.70;;;;;;;;;;5047610;28;20316;-63
2023/05/15 02:10:02;;;;;;;13.93;11.23;;;;;;;;;;5056428;28;20205;-63
2023/05/15 02:12:31;;;;;;;11.23;10.07;;;;;;;;;;5057086;28;20232;-63
2023/05/15 02:14:58;;;;;;;10.63;8.93;;;;;;;;;;5057531;28;20229;-64
2023/05/15 02:17:27;;;;;;;10.40;9.13;;;;;;;;;;5055901;28;20233;-63
2023/05/15 02:19:55;;;;;;;10.07;9.07;;;;;;;;;;5054274;28;20206;-64
2023/05/15 02:22:22;;;;;;;9.07;8.17;;;;;;;;;;5059881;28;20656;-64
2023/05/15 02:24:49;;;;;;;9.37;8.27;;;;;;;;;;5048804;28;20209;-63
2023/05/15 02:27:20;;;;;;;9.83;8.10;;;;;;;;;;5056802;28;20707;-64
2023/05/15 02:30:00;;;;;;;9.50;8.60;;;;;;;;;;5054992;28;20198;-62
2023/05/15 02:32:34;;;;;;;9.73;8.00;;;;;;;;;;5055328;28;20652;-64
2023/05/15 02:35:02;;;;;;;10.90;8.73;;;;;;;;;;5051360;28;20245;-64
2023/05/15 02:37:32;;;;;;;9.63;8.70;;;;;;;;;;5052820;28;20242;-64
2023/05/15 02:40:00;;;;;;;9.37;7.83;;;;;;;;;;5056544;28;20667;-64
2023/05/15 02:42:29;;;;;;;9.47;8.33;;;;;;;;;;5057076;28;20633;-64
2023/05/15 02:44:58;;;;;;;9.70;8.70;;;;;;;;;;5061458;28;20212;-64
2023/05/15 02:47:26;;;;;;;9.73;8.37;;;;;;;;;;5059774;28;20252;-64
2023/05/15 02:49:53;;;;;;;9.43;8.00;;;;;;;;;;5061149;28;20647;-63
2023/05/15 02:52:22;;;;;;;8.57;7.73;;;;;;;;;;5055859;28;20282;-64
2023/05/15 02:54:50;;;;;;;9.27;7.83;;;;;;;;;;5053708;28;20207;-63
2023/05/15 02:57:17;;;;;;;8.37;7.57;;;;;;;;;;5058380;28;20318;-64
2023/05/15 02:59:44;;;;;;;7.83;6.87;;;;;;;;;;5064763;28;20244;-64
2023/05/15 03:02:12;;;;;;;8.20;7.03;;;;;;;;;;5060442;28;20236;-63
2023/05/15 03:04:39;;;;;;;7.40;6.70;;;;;;;;;;5057415;28;20292;-63
2023/05/15 03:07:07;;;;;;;7.93;7.13;;;;;;;;;;5056030;28;20272;-64
2023/05/15 03:09:34;;;;;;;8.33;7.30;;;;;;;;;;5058790;28;20707;-64
2023/05/15 03:12:02;;;;;;;8.00;7.30;;;;;;;;;;5072661;28;20318;-63
2023/05/15 03:14:29;;;;;;;9.33;7.80;;;;;;;;;;5044284;28;20661;-64
2023/05/15 03:16:56;;;;;;;6.97;6.27;;;;;;;;;;5062117;28;20650;-63
2023/05/15 03:19:24;;;;;;;8.07;7.27;;;;;;;;;;5059325;28;20205;-64
2023/05/15 03:21:51;;;;;;;7.80;7.10;;;;;;;;;;5061102;28;20265;-65
2023/05/15 03:24:19;;;;;;;8.10;7.30;;;;;;;;;;5070645;28;20206;-63
2023/05/15 03:26:47;;;;;;;8.43;6.90;;;;;;;;;;5060883;28;20814;-65
2023/05/15 03:29:14;;;;;;;8.47;7.03;;;;;;;;;;5055048;28;20229;-63
2023/05/15 03:31:41;;;;;;;7.10;6.40;;;;;;;;;;5048556;28;20202;-64
2023/05/15 03:34:09;;;;;;;9.30;7.00;;;;;;;;;;5053302;28;20201;-64
2023/05/15 03:36:36;;;;;;;7.90;7.10;;;;;;;;;;5051003;28;20197;-62
2023/05/15 03:39:04;;;;;;;7.87;6.87;;;;;;;;;;5053299;28;20283;-64
2023/05/15 03:41:31;;;;;;;8.13;6.93;;;;;;;;;;5042143;28;20245;-64
2023/05/15 03:43:58;;;;;;;7.87;7.07;;;;;;;;;;5052255;28;20198;-64
2023/05/15 03:46:26;;;;;;;8.03;7.23;;;;;;;;;;5058888;28;20225;-64
2023/05/15 03:48:54;;;;;;;8.07;7.33;;;;;;;;;;5045637;28;20236;-65
2023/05/15 03:51:23;;;;;;;7.47;6.70;;;;;;;;;;5050367;28;20210;-65
2023/05/15 03:53:50;;;;;;;7.97;7.17;;;;;;;;;;5047393;28;20216;-64
2023/05/15 03:56:17;;;;;;;8.60;7.70;;;;;;;;;;5053077;28;20271;-64
2023/05/15 03:58:45;;;;;;;8.27;7.47;;;;;;;;;;5053388;28;20772;-64
2023/05/15 04:01:12;;;;;;;9.53;8.10;;;;;;;;;;5044976;28;20244;-64
2023/05/15 04:03:40;;;;;;;7.73;7.03;;;;;;;;;;5046545;28;20657;-64
2023/05/15 04:06:07;;;;;;;8.50;7.70;;;;;;;;;;5057652;28;20205;-64
2023/05/15 04:08:34;;;;;;;8.90;8.00;;;;;;;;;;5045865;28;21947;-64
2023/05/15 04:11:02;;;;;;;8.20;7.40;;;;;;;;;;5046061;28;20226;-64
2023/05/15 04:13:29;;;;;;;8.43;7.47;;;;;;;;;;5044215;28;20279;-64
2023/05/15 04:15:58;;;;;;;9.90;7.93;;;;;;;;;;5043958;28;20217;-64
2023/05/15 04:18:26;;;;;;;8.67;7.77;;;;;;;;;;5041883;28;20240;-64
2023/05/15 04:20:54;;;;;;;8.50;7.60;;;;;;;;;;5051250;28;20653;-64
2023/05/15 04:23:21;;;;;;;8.63;7.73;;;;;;;;;;5037453;28;20435;-64
2023/05/15 04:25:52;;;;;;;8.60;7.80;;;;;;;;;;5053576;28;21317;-64
2023/05/15 04:28:20;;;;;;;8.63;7.53;;;;;;;;;;5045779;28;20232;-64
2023/05/15 04:30:48;;;;;;;8.83;7.93;;;;;;;;;;5053999;28;20725;-62
2023/05/15 04:33:15;;;;;;;8.13;7.20;;;;;;;;;;5051999;28;20209;-64
2023/05/15 04:35:43;;;;;;;8.43;7.53;;;;;;;;;;5052684;28;20302;-64
2023/05/15 04:38:10;;;;;;;8.87;7.97;;;;;;;;;;5056022;28;20719;-63
2023/05/15 04:40:37;;;;;;;8.40;7.50;;;;;;;;;;5060840;28;20213;-64
2023/05/15 04:43:05;;;;;;;7.80;7.00;;;;;;;;;;5059565;28;20202;-61
2023/05/15 04:45:32;;;;;;;8.13;7.33;;;;;;;;;;5056659;28;20209;-64
2023/05/15 04:48:00;;;;;;;8.43;7.63;;;;;;;;;;5062917;28;20302;-64
2023/05/15 04:50:27;;;;;;;8.63;7.77;;;;;;;;;;5056470;28;20240;-64
2023/05/15 04:52:55;;;;;;;8.97;8.07;;;;;;;;;;5058490;28;20217;-63
2023/05/15 04:55:22;;;;;;;8.17;7.40;;;;;;;;;;5057014;28;20202;-63
2023/05/15 04:57:50;;;;;;;9.90;8.67;;;;;;;;;;5052819;28;20241;-64
2023/05/15 05:00:17;;;;;;;12.60;8.07;;;;;;;;;;5055940;28;20355;-62
2023/05/15 05:02:45;;;;;;;9.90;8.17;;;;;;;;;;5058047;28;20201;-64
2023/05/15 05:05:13;;;;;;;9.63;8.63;;;;;;;;;;5059339;28;20240;-63
2023/05/15 05:07:43;;;;;;;8.43;7.57;;;;;;;;;;5055010;28;20290;-64
2023/05/15 05:10:10;;;;;;;9.13;8.23;;;;;;;;;;5058948;28;20297;-63
2023/05/15 05:12:38;;;;;;;9.10;7.80;;;;;;;;;;5057068;28;20232;-62
2023/05/15 05:15:05;;;;;;;10.57;8.20;;;;;;;;;;5053512;28;20284;-65
2023/05/15 05:17:33;;;;;;;8.73;7.83;;;;;;;;;;5053760;28;20313;-64
2023/05/15 05:20:00;;;;;;;8.23;7.43;;;;;;;;;;5059677;28;20301;-64
2023/05/15 05:22:28;;;;;;;8.77;7.90;;;;;;;;;;5062622;28;20201;-63
2023/05/15 05:24:55;;;;;;;9.10;8.00;;;;;;;;;;5051798;28;20236;-64
2023/05/15 05:27:22;;;;;;;10.63;8.20;;;;;;;;;;5057525;28;20681;-64
2023/05/15 05:29:52;;;;;;;7.47;6.77;;;;;;;;;;5073212;28;20224;-64
2023/05/15 05:32:19;;;;;;;8.20;7.40;;;;;;;;;;5055684;28;20198;-63
2023/05/15 05:34:47;;;;;;;8.73;7.90;;;;;;;;;;5059484;28;20355;-63
2023/05/15 05:37:14;;;;;;;8.27;7.47;;;;;;;;;;5052225;28;20249;-63
2023/05/15 05:39:42;;;;;;;7.93;7.17;;;;;;;;;;5046530;28;20216;-64
2023/05/15 05:42:10;;;;;;;8.67;6.77;;;;;;;;;;5054582;28;20686;-64
2023/05/15 05:44:37;;;;;;;7.50;6.77;;;;;;;;;;5048092;28;20235;-64
2023/05/15 05:47:04;;;;;;;7.83;7.03;;;;;;;;;;5048542;28;20302;-64
2023/05/15 05:49:32;;;;;;;8.30;7.33;;;;;;;;;;5055756;28;20229;-64
2023/05/15 05:52:05;;;;;;;7.53;6.83;;;;;;;;;;5052050;28;20284;-63
2023/05/15 05:54:32;;;;;;;7.90;7.03;;;;;;;;;;5051979;28;20202;-63
2023/05/15 05:57:00;;;;;;;8.30;7.50;;;;;;;;;;5063034;28;20687;-64
2023/05/15 05:59:28;;;;;;;8.13;7.43;;;;;;;;;;5055286;28;20622;-64
2023/05/15 06:01:56;;;;;;;8.47;7.57;;;;;;;;;;5055404;28;20255;-64
2023/05/15 06:04:23;;;;;;;9.13;7.80;;;;;;;;;;5054533;28;20557;-64
2023/05/15 06:06:51;;;;;;;7.93;7.23;;;;;;;;;;5052392;28;20744;-64
2023/05/15 06:09:19;;;;;;;8.80;7.90;;;;;;;;;;5054064;28;20233;-63
2023/05/15 06:11:46;;;;;;;8.17;7.37;;;;;;;;;;5057132;28;20210;-64
2023/05/15 06:14:14;;;;;;;7.70;6.90;;;;;;;;;;5050092;28;20657;-65
2023/05/15 06:16:41;;;;;;;9.47;6.63;;;;;;;;;;5047481;28;20605;-63
2023/05/15 06:19:08;;;;;;;8.23;7.33;;;;;;;;;;5052105;28;21055;-63
2023/05/15 06:21:36;;;;;;;7.77;6.97;;;;;;;;;;5053340;28;20217;-64
2023/05/15 06:24:04;;;;;;;7.60;6.87;;;;;;;;;;5050244;28;20214;-64
2023/05/15 06:26:32;;;;;;;8.23;6.90;;;;;;;;;;5056465;28;20241;-63
2023/05/15 06:28:59;;;;;;;9.40;6.83;;;;;;;;;;5046689;28;20226;-64
2023/05/15 06:31:29;;;;;;;7.30;6.60;;;;;;;;;;5053451;28;20202;-63
2023/05/15 06:33:56;;;;;;;7.87;7.07;;;;;;;;;;5048386;28;20202;-63
2023/05/15 06:36:24;;;;;;;7.93;7.20;;;;;;;;;;5046656;28;20198;-63
2023/05/15 06:38:51;;;;;;;7.60;6.90;;;;;;;;;;5054988;28;20715;-64
2023/05/15 06:41:20;;;;;;;8.10;7.30;;;;;;;;;;5056162;28;20300;-63
2023/05/15 06:43:47;;;;;;;7.70;7.00;;;;;;;;;;5053906;28;20714;-63
2023/05/15 06:46:17;;;;;;;7.70;7.00;;;;;;;;;;5070331;28;20213;-64
2023/05/15 06:48:45;;;;;;;7.77;7.07;;;;;;;;;;5060109;28;20257;-63
2023/05/15 06:51:12;;;;;;;7.93;7.13;;;;;;;;;;5057702;28;20193;-63
2023/05/15 06:53:41;;;;;;;7.00;6.40;;;;;;;;;;5061439;28;20288;-64
2023/05/15 06:56:08;;;;;;;7.60;6.90;;;;;;;;;;5059126;28;20867;-63
2023/05/15 06:58:36;;;;;;;7.80;7.10;;;;;;;;;;5054409;28;20229;-64
2023/05/15 07:01:05;;;;;;;9.03;7.83;;;;;;;;;;5060540;28;20313;-64
2023/05/15 07:03:33;;;;;;;8.90;7.47;;;;;;;;;;5049407;28;20225;-64
2023/05/15 07:06:00;;;;;;;8.18;7.38;;;;;;;;;;5045120;28;20526;-64
2023/05/15 07:08:27;;;;;;;7.60;6.90;;;;;;;;;;5048999;28;20228;-63
2023/05/15 07:10:55;;;;;;;8.00;7.20;;;;;;;;;;5050627;28;20795;-63
2023/05/15 07:13:22;;;;;;;8.50;7.60;;;;;;;;;;5055575;28;20226;-64
2023/05/15 07:15:49;;;;;;;8.00;7.20;;;;;;;;;;5053113;28;20317;-63
2023/05/15 07:18:18;;;;;;;8.50;7.70;;;;;;;;;;5057551;28;20232;-64
2023/05/15 07:20:45;;;;;;;8.15;7.35;;;;;;;;;;5055430;28;20699;-63
2023/05/15 07:23:12;;;;;;;8.25;7.32;;;;;;;;;;5055797;28;20210;-63
2023/05/15 07:25:40;;;;;;;8.10;7.30;;;;;;;;;;5047752;28;20194;-63
2023/05/15 07:28:08;;;;;;;9.15;7.93;;;;;;;;;;5041592;28;20766;-64
2023/05/15 07:30:35;;;;;;;8.35;7.55;;;;;;;;;;5048916;28;20214;-64
2023/05/15 07:33:02;;;;;;;8.02;7.25;;;;;;;;;;5042758;28;20253;-63
2023/05/15 07:35:30;;;;;;;8.03;7.33;;;;;;;;;;5043942;28;20619;-64
2023/05/15 07:37:58;;;;;;;8.65;7.72;;;;;;;;;;5053338;28;20599;-64
2023/05/15 07:40:25;;;;;;;7.60;6.90;;;;;;;;;;5049318;28;20564;-64
2023/05/15 07:42:53;;;;;;;9.27;7.55;;;;;;;;;;5054286;28;20735;-64
2023/05/15 07:45:20;;;;;;;8.50;7.65;;;;;;;;;;5045508;28;20748;-64
2023/05/15 07:47:48;;;;;;;8.00;7.18;;;;;;;;;;5055040;28;20658;-64
2023/05/15 07:50:16;;;;;;;7.80;7.03;;;;;;;;;;5049966;28;20629;-64
2023/05/15 07:52:44;;;;;;;7.63;6.88;;;;;;;;;;5058067;28;20197;-64
2023/05/15 07:55:11;;;;;;;7.28;6.57;;;;;;;;;;5051448;28;20251;-64
2023/05/15 07:57:39;;;;;;;8.07;7.28;;;;;;;;;;5055599;28;20214;-64
2023/05/15 08:00:09;;;;;;;7.97;7.10;;;;;;;;;;5049659;28;20209;-63
2023/05/15 08:02:37;;;;;;;7.55;6.85;;;;;;;;;;5057953;28;20316;-64
2023/05/15 08:05:05;;;;;;;7.00;6.40;;;;;;;;;;5049138;28;20216;-64
2023/05/15 08:07:35;;;;;;;8.55;6.90;;;;;;;;;;5048304;28;20261;-64
2023/05/15 08:10:04;;;;;;;7.13;6.43;;;;;;;;;;5064448;28;20234;-64
2023/05/15 08:12:32;;;;;;;6.53;5.82;;;;;;;;;;5052491;28;20292;-65
2023/05/15 08:14:59;;;;;;;7.38;6.68;;;;;;;;;;5056237;28;20202;-64
2023/05/15 08:17:27;;;;;;;7.00;6.40;;;;;;;;;;5056100;28;20218;-64
2023/05/15 08:19:55;;;;;;;7.30;6.65;;;;;;;;;;5073650;28;20564;-64
2023/05/15 08:22:22;;;;;;;7.32;6.63;;;;;;;;;;5057415;28;20325;-64
2023/05/15 08:24:50;;;;;;;8.02;7.22;;;;;;;;;;5059849;28;20216;-63
2023/05/15 08:27:17;;;;;;;6.55;5.95;;;;;;;;;;5052481;28;20324;-64
2023/05/15 08:29:44;;;;;;;7.65;6.40;;;;;;;;;;5061233;28;20253;-64
2023/05/15 08:32:12;;;;;;;7.45;6.75;;;;;;;;;;5059026;28;20305;-64
2023/05/15 08:34:39;;;;;;;7.70;6.22;;;;;;;;;;5054073;28;20207;-63
2023/05/15 08:37:06;;;;;;;5.25;4.85;;;;;;;;;;5056796;28;20718;-64
2023/05/15 08:39:34;;;;;;;4.95;4.55;;;;;;;;;;5064108;28;20701;-64
2023/05/15 08:42:04;;;;;;;6.07;5.43;;;;;;;;;;5063179;28;20212;-62
2023/05/15 08:44:31;;;;;;;6.45;5.25;;;;;;;;;;5050008;28;20214;-64
2023/05/15 08:46:59;;;;;;;6.13;4.97;;;;;;;;;;5062520;28;20379;-63
2023/05/15 08:49:29;;;;;;;4.90;4.47;;;;;;;;;;5050920;28;20225;-63
2023/05/15 08:51:57;;;;;;;5.50;5.00;;;;;;;;;;5054137;28;20225;-64
2023/05/15 08:54:24;;;;;;;4.97;4.57;;;;;;;;;;5042559;28;20236;-65
2023/05/15 08:56:52;;;;;;;4.88;4.38;;;;;;;;;;5057078;28;20225;-62
2023/05/15 08:59:20;;;;;;;4.68;4.32;;;;;;;;;;5057236;28;20616;-63
2023/05/15 09:01:48;;;;;;;4.60;4.20;;;;;;;;;;5056794;28;20618;-63
2023/05/15 09:04:16;;;;;;;3.95;3.65;;;;;;;;;;5058232;28;20205;-63
2023/05/15 09:06:43;;;;;;;4.60;4.20;;;;;;;;;;5058535;28;20821;-63
2023/05/15 09:09:12;;;;;;;5.70;4.30;;;;;;;;;;5050713;28;20233;-64
2023/05/15 09:11:43;;;;;;;4.03;3.72;;;;;;;;;;5052178;28;20237;-62
2023/05/15 09:14:11;;;;;;;4.72;4.20;;;;;;;;;;5052244;28;21665;-64
2023/05/15 09:16:38;;;;;;;5.15;4.65;;;;;;;;;;5067949;28;20201;-64
2023/05/15 09:19:06;;;;;;;5.00;4.20;;;;;;;;;;5048632;28;20217;-63
2023/05/15 09:21:34;;;;;;;4.45;4.05;;;;;;;;;;5054496;28;20214;-64
2023/05/15 09:24:17;;;;;;;4.05;3.75;;;;;;;;;;5056003;28;20686;-62
2023/05/15 09:26:45;;;;;;;4.63;4.22;;;;;;;;;;5055290;28;20198;-64
2023/05/15 09:29:16;;;;;;;5.35;3.90;;;;;;;;;;5049237;28;20237;-64
2023/05/15 09:31:48;;;;;;;4.47;3.92;;;;;;;;;;5051774;28;20210;-64
2023/05/15 09:34:16;;;;;;;4.32;3.90;;;;;;;;;;5038996;28;20201;-64
2023/05/15 09:36:43;;;;;;;4.50;4.10;;;;;;;;;;5049283;28;20198;-64
2023/05/15 09:39:11;;;;;;;4.10;3.80;;;;;;;;;;5056569;28;20305;-63
2023/05/15 09:41:42;;;;;;;5.40;4.32;;;;;;;;;;5045585;28;20217;-63
2023/05/15 09:44:18;;;;;;;4.45;4.10;;;;;;;;;;5048700;28;20259;-63
2023/05/15 09:46:48;;;;;;;4.38;4.07;;;;;;;;;;5057617;28;20208;-64
2023/05/15 09:49:16;;;;;;;4.30;4.00;;;;;;;;;;5046433;28;20229;-62
2023/05/15 09:51:43;;;;;;;4.88;4.43;;;;;;;;;;5053536;28;20638;-63
2023/05/15 09:54:17;;;;;;;5.38;4.97;;;;;;;;;;5051631;28;20198;-64
2023/05/15 09:56:46;;;;;;;5.07;4.68;;;;;;;;;;5050822;28;20197;-64
2023/05/15 09:59:20;;;;;;;5.65;5.15;;;;;;;;;;5053837;28;20217;-64
2023/05/15 10:01:48;;;;;;;5.57;4.85;;;;;;;;;;5048699;28;20648;-64
2023/05/15 10:04:16;;;;;;;5.68;5.25;;;;;;;;;;5055592;28;20505;-61
2023/05/15 10:06:47;;;;;;;5.03;4.63;;;;;;;;;;5051941;28;20209;-63
2023/05/15 10:09:15;;;;;;;5.72;4.90;;;;;;;;;;5046414;28;20222;-62
2023/05/15 10:11:43;;;;;;;5.45;4.70;;;;;;;;;;5045138;28;20832;-62
2023/05/15 10:14:12;;;;;;;5.15;4.63;;;;;;;;;;5048741;28;20448;-63
2023/05/15 10:16:40;;;;;;;5.53;4.88;;;;;;;;;;5052695;28;20206;-63
2023/05/15 10:19:09;;;;;;;5.38;4.93;;;;;;;;;;5060411;28;20205;-63
2023/05/15 10:21:39;;;;;;;5.70;5.00;;;;;;;;;;5055535;28;20293;-66
2023/05/15 10:24:07;;;;;;;5.38;4.97;;;;;;;;;;5054582;28;20206;-64
2023/05/15 10:26:41;;;;;;;5.30;4.78;;;;;;;;;;5059345;28;20251;-65
2023/05/15 10:29:11;;;;;;;5.40;5.00;;;;;;;;;;5046908;28;20303;-65
2023/05/15 10:31:39;;;;;;;4.63;4.22;;;;;;;;;;5049858;28;20259;-63
2023/05/15 10:34:07;;;;;;;5.22;4.80;;;;;;;;;;5049922;28;20379;-63
2023/05/15 10:36:35;;;;;;;5.03;4.53;;;;;;;;;;5042161;28;20538;-65
2023/05/15 10:39:05;;;;;;;4.75;4.35;;;;;;;;;;5039846;28;20205;-63
2023/05/15 10:41:35;;;;;;;5.20;4.53;;;;;;;;;;5040770;28;20198;-66
2023/05/15 10:44:02;;;;;;;4.55;4.07;;;;;;;;;;5043437;28;20342;-64
2023/05/15 10:46:31;;;;;;;4.05;3.75;;;;;;;;;;5049788;28;20898;-63
2023/05/15 10:49:00;;;;;;;4.03;3.60;;;;;;;;;;5053914;28;20205;-63
2023/05/15 10:51:28;;;;;;;4.90;4.50;;;;;;;;;;5051166;28;20197;-64
2023/05/15 10:53:56;;;;;;;4.35;4.03;;;;;;;;;;5054556;28;20290;-63
2023/05/15 10:56:29;;;;;;;4.78;4.20;;;;;;;;;;5055654;28;20213;-63
2023/05/15 10:58:57;;;;;;;4.88;4.40;;;;;;;;;;5052791;28;20349;-63
2023/05/15 11:01:34;;;;;;;5.72;4.20;;;;;;;;;;5048779;28;20487;-64
2023/05/15 11:04:06;;;;;;;5.15;4.43;;;;;;;;;;5069288;28;20201;-64
2023/05/15 11:06:34;;;;;;;24.33;11.07;;;;;;;;;;5076908;28;20210;-63
2023/05/15 11:09:24;;;;;;;4.47;4.18;;;;;;;;;;5050996;28;20202;-64
2023/05/15 11:11:57;;;;;;;7.28;6.68;;;;;;;;;;5055642;28;20210;-64
2023/05/15 11:14:29;;;;;;;5.65;4.78;;;;;;;;;;5054395;28;20197;-63
2023/05/15 11:16:57;;;;;;;2.92;2.72;;;;;;;;;;5054613;28;20253;-61
2023/05/15 11:19:32;;;;;;;2.70;1.80;;;;;;;;;;5051305;28;20240;-63
2023/05/15 11:22:08;;;;;;;3.67;1.65;;;;;;;;;;5045246;28;20208;-64
2023/05/15 11:24:54;;;;;;;1.42;1.33;;;;;;;;;;5047026;28;20637;-64
2023/05/15 11:27:23;;;;;;;1.10;1.10;;;;;;;;;;5052486;28;20233;-63
2023/05/15 11:30:06;;;;;;;1.00;1.00;;;;;;;;;;5055398;28;20285;-63
2023/05/15 11:32:51;;;;;;;1.00;1.00;;;;;;;;;;5053746;28;20372;-63
2023/05/15 11:35:34;;;;;;;1.38;1.23;;;;;;;;;;5061798;28;20202;-63
2023/05/15 11:38:02;;;;;;;1.02;1.00;;;;;;;;;;5052901;28;20276;-62
2023/05/15 11:40:31;;;;;;;0.90;0.90;;;;;;;;;;5060652;28;20233;-65
2023/05/15 11:42:59;;;;;;;1.15;1.05;;;;;;;;;;5048625;28;20287;-64
2023/05/15 11:45:31;;;;;;;0.98;0.98;;;;;;;;;;5053920;28;20289;-63
2023/05/15 11:48:02;;;;;;;0.90;0.90;;;;;;;;;;5052415;28;20244;-63
2023/05/15 11:50:33;;;;;;;1.75;1.65;;;;;;;;;;5049289;28;20239;-65
2023/05/15 11:53:05;;;;;;;1.90;1.70;;;;;;;;;;5052603;28;20220;-63
2023/05/15 11:55:33;;;;;;;1.92;1.60;;;;;;;;;;5044313;28;20202;-63
2023/05/15 11:58:00;;;;;;;1.15;1.15;;;;;;;;;;5048835;28;20229;-64
2023/05/15 12:00:28;;;;;;;1.45;1.38;;;;;;;;;;5056258;28;20218;-64
2023/05/15 12:02:56;;;;;;;1.50;1.40;;;;;;;;;;5049791;28;20728;-63
2023/05/15 12:05:23;;;;;;;1.60;1.50;;;;;;;;;;5048135;28;20663;-64
2023/05/15 12:07:51;;;;;;;2.58;2.35;;;;;;;;;;5060449;28;20218;-63
2023/05/15 12:10:18;;;;;;;2.80;2.60;;;;;;;;;;5049439;28;20371;-63
2023/05/15 12:12:46;;;;;;;3.05;2.47;;;;;;;;;;5046599;28;20205;-63
2023/05/15 12:15:14;;;;;;;2.88;2.67;;;;;;;;;;5048827;28;20198;-64
2023/05/15 12:17:42;;;;;;;2.60;2.40;;;;;;;;;;5040366;28;20704;-63
2023/05/15 12:20:17;;;;;;;2.75;2.08;;;;;;;;;;5041465;28;20209;-64
2023/05/15 12:22:44;;;;;;;2.60;2.33;;;;;;;;;;5052948;28;20208;-65
2023/05/15 12:25:12;;;;;;;2.70;2.50;;;;;;;;;;5043823;28;20707;-63
2023/05/15 12:27:40;;;;;;;2.58;2.38;;;;;;;;;;5050252;28;20268;-64
2023/05/15 12:30:09;;;;;;;2.63;2.42;;;;;;;;;;5044161;28;20303;-63
2023/05/15 12:32:37;;;;;;;3.15;2.63;;;;;;;;;;5054861;28;20511;-64
2023/05/15 12:35:05;;;;;;;2.50;2.30;;;;;;;;;;5050146;28;21442;-63
2023/05/15 12:37:34;;;;;;;2.45;2.35;;;;;;;;;;5055692;28;20708;-63
2023/05/15 12:40:08;;;;;;;3.05;2.75;;;;;;;;;;5054813;28;20492;-63
2023/05/15 12:42:43;;;;;;;2.88;2.67;;;;;;;;;;5054020;28;20201;-64
2023/05/15 12:45:17;;;;;;;3.10;2.90;;;;;;;;;;5056454;28;20221;-62
2023/05/15 12:47:45;;;;;;;3.30;2.30;;;;;;;;;;5056244;28;20273;-63
2023/05/15 12:50:17;;;;;;;2.65;2.45;;;;;;;;;;5053666;28;20229;-64
2023/05/15 12:52:51;;;;;;;2.90;2.60;;;;;;;;;;5057363;28;20221;-65
2023/05/15 12:55:30;;;;;;;2.60;2.45;;;;;;;;;;5045767;28;20616;-64
2023/05/15 12:58:06;;;;;;;3.20;2.50;;;;;;;;;;5049649;28;20438;-64
2023/05/15 13:00:34;;;;;;;2.60;2.50;;;;;;;;;;5046367;28;20212;-64
2023/05/15 13:03:03;;;;;;;2.83;2.60;;;;;;;;;;5054045;28;20201;-65
2023/05/15 13:05:34;;;;;;;4.25;2.85;;;;;;;;;;5052006;28;20214;-64
2023/05/15 13:08:06;;;;;;;3.17;2.88;;;;;;;;;;5048527;28;20225;-64
2023/05/15 13:10:34;;;;;;;3.90;3.60;;;;;;;;;;5059289;28;20429;-64
2023/05/15 13:13:02;;;;;;;3.15;2.70;;;;;;;;;;5051946;28;20210;-64
2023/05/15 13:15:30;;;;;;;2.90;2.70;;;;;;;;;;5051648;28;20210;-65
2023/05/15 13:17:59;;;;;;;3.00;2.80;;;;;;;;;;5052970;28;20586;-63
2023/05/15 13:20:28;;;;;;;2.88;2.67;;;;;;;;;;5055114;28;20207;-64
2023/05/15 13:22:58;;;;;;;3.30;2.28;;;;;;;;;;5056160;28;20336;-64
2023/05/15 13:25:25;;;;;;;4.25;2.85;;;;;;;;;;5060076;28;20629;-65
2023/05/15 13:27:54;;;;;;;3.20;3.00;;;;;;;;;;5058470;28;20217;-64
2023/05/15 13:30:22;;;;;;;2.67;2.58;;;;;;;;;;5052332;28;20221;-63
2023/05/15 13:32:51;;;;;;;2.55;2.35;;;;;;;;;;5050352;28;20212;-63
2023/05/15 13:35:21;;;;;;;3.10;2.53;;;;;;;;;;5053866;28;20254;-63
2023/05/15 13:37:50;;;;;;;2.60;2.40;;;;;;;;;;5052002;28;20314;-63
2023/05/15 13:40:18;;;;;;;2.72;2.50;;;;;;;;;;5052903;28;20292;-63
2023/05/15 13:42:46;;;;;;;2.80;2.60;;;;;;;;;;5055543;28;20229;-64
2023/05/15 13:45:15;;;;;;;7.95;5.45;;;;;;;;;;5052748;28;20300;-63
2023/05/15 13:47:44;;;;;;;2.70;2.50;;;;;;;;;;5064145;28;20255;-64
2023/05/15 13:50:13;;;;;;;3.20;2.20;;;;;;;;;;5064952;28;20592;-63
2023/05/15 13:52:41;;;;;;;3.28;2.25;;;;;;;;;;5056975;28;20220;-64
2023/05/15 13:55:09;;;;;;;2.30;2.20;;;;;;;;;;5054508;28;20193;-64
2023/05/15 13:57:37;;;;;;;2.55;2.45;;;;;;;;;;5055385;28;20254;-64
2023/05/15 14:00:06;;;;;;;2.60;2.50;;;;;;;;;;5044747;28;20302;-64
2023/05/15 14:02:33;;;;;;;2.80;2.63;;;;;;;;;;5061021;28;20901;-63
2023/05/15 14:05:03;;;;;;;3.35;3.00;;;;;;;;;;5051635;28;20202;-62
2023/05/15 14:07:30;;;;;;;3.05;2.70;;;;;;;;;;5056735;28;20634;-65
2023/05/15 14:09:58;;;;;;;5.18;3.22;;;;;;;;;;5048809;28;20213;-63
2023/05/15 14:12:26;;;;;;;3.25;2.92;;;;;;;;;;5056435;28;20216;-63
2023/05/15 14:14:54;;;;;;;2.38;2.28;;;;;;;;;;5057714;28;20233;-65
2023/05/15 14:17:22;;;;;;;2.90;2.70;;;;;;;;;;5051224;28;20226;-63
2023/05/15 14:19:50;;;;;;;3.25;2.72;;;;;;;;;;5056521;28;20656;-64
2023/05/15 14:22:17;;;;;;;3.65;2.58;;;;;;;;;;5057254;28;20258;-63
2023/05/15 14:24:44;;;;;;;2.88;2.67;;;;;;;;;;5046096;28;20209;-65
2023/05/15 14:27:12;;;;;;;2.90;2.70;;;;;;;;;;5065383;28;20256;-64
2023/05/15 14:29:39;;;;;;;2.70;2.50;;;;;;;;;;5051211;28;20206;-64
2023/05/15 14:32:07;;;;;;;3.10;2.80;;;;;;;;;;5059636;28;20217;-65
2023/05/15 14:34:35;;;;;;;2.63;2.53;;;;;;;;;;5058959;28;20582;-64
2023/05/15 14:37:03;;;;;;;3.53;3.17;;;;;;;;;;5060886;28;20251;-64
2023/05/15 14:39:30;;;;;;;3.40;3.17;;;;;;;;;;5059890;28;20219;-64
2023/05/15 14:41:58;;;;;;;3.38;2.15;;;;;;;;;;5053666;28;20205;-64
2023/05/15 14:44:25;;;;;;;2.47;2.20;;;;;;;;;;5062231;28;20213;-64
2023/05/15 14:47:11;;;;;;;2.70;2.50;;;;;;;;;;5054267;28;20272;-63
2023/05/15 14:49:38;;;;;;;4.15;2.90;;;;;;;;;;5056198;28;20564;-65